createdAt,value
2023-03-04T00:01:11.520Z,0.80
2023-03-04T00:06:14.428Z,0.80
2023-03-04T00:11:17.327Z,0.80
2023-03-04T00:16:20.397Z,0.82
2023-03-04T00:21:24.427Z,0.84
2023-03-04T00:26:27.372Z,0.85
2023-03-04T00:31:30.323Z,0.86
2023-03-04T00:36:33.283Z,0.87
2023-03-04T00:41:36.042Z,0.89
2023-03-04T00:46:38.895Z,0.90
2023-03-04T00:51:41.782Z,0.91
2023-03-04T00:56:44.686Z,0.92
2023-03-04T01:01:47.593Z,0.93
2023-03-04T01:06:50.497Z,0.95
2023-03-04T01:11:53.700Z,0.95
2023-03-04T01:16:56.574Z,0.96
2023-03-04T01:21:59.509Z,0.97
2023-03-04T01:27:02.521Z,1.00
2023-03-04T01:32:05.829Z,1.01
2023-03-04T01:37:09.555Z,1.03
2023-03-04T01:42:21.058Z,1.01
2023-03-04T01:47:27.647Z,1.00
2023-03-04T01:52:30.859Z,0.98
2023-03-04T01:57:36.542Z,0.97
2023-03-04T02:02:39.933Z,0.97
2023-03-04T02:07:43.324Z,0.97
2023-03-04T02:12:46.158Z,0.98
2023-03-04T02:17:49.689Z,0.97
2023-03-04T02:23:11.947Z,0.98
2023-03-04T02:28:15.147Z,0.98
2023-03-04T02:33:19.278Z,1.00
2023-03-04T02:38:22.385Z,1.02
2023-03-04T02:43:25.298Z,1.07
2023-03-04T02:48:28.196Z,1.10
2023-03-04T02:53:31.110Z,1.13
2023-03-04T02:58:34.254Z,1.15
2023-03-04T03:03:37.116Z,1.16
2023-03-04T03:08:40.015Z,1.17
2023-03-04T03:13:42.821Z,1.19
2023-03-04T03:18:45.618Z,1.20
2023-03-04T03:23:48.518Z,1.22
2023-03-04T03:28:51.426Z,1.23
2023-03-04T03:33:54.535Z,1.24
2023-03-04T03:38:57.449Z,1.26
2023-03-04T03:44:00.336Z,1.26
2023-03-04T03:49:03.238Z,1.26
2023-03-04T03:54:06.150Z,1.27
2023-03-04T03:59:09.050Z,1.28
2023-03-04T04:04:11.950Z,1.29
2023-03-04T04:09:14.859Z,1.31
2023-03-04T04:14:17.762Z,1.33
2023-03-04T04:19:21.587Z,1.37
2023-03-04T04:24:24.487Z,1.40
2023-03-04T04:29:27.492Z,1.41
2023-03-04T04:34:30.497Z,1.44
2023-03-04T04:39:33.328Z,1.45
2023-03-04T04:44:39.129Z,1.46
2023-03-04T04:49:42.179Z,1.45
2023-03-04T04:54:45.078Z,1.45
2023-03-04T04:59:48.288Z,1.44
2023-03-04T05:04:51.104Z,1.44
2023-03-04T05:09:54.102Z,1.43
2023-03-04T05:14:57.009Z,1.37
2023-03-04T05:19:59.909Z,1.32
2023-03-04T05:25:03.388Z,1.30
2023-03-04T05:30:07.106Z,1.27
2023-03-04T05:35:10.045Z,1.27
2023-03-04T05:40:13.612Z,1.21
2023-03-04T05:45:16.478Z,1.19
2023-03-04T05:50:20.404Z,1.19
2023-03-04T05:55:23.724Z,1.23
2023-03-04T06:00:26.706Z,1.27
2023-03-04T06:05:29.523Z,1.30
2023-03-04T06:10:32.429Z,1.33
2023-03-04T06:15:35.348Z,1.41
2023-03-04T06:20:38.234Z,1.47
2023-03-04T06:25:41.244Z,1.55
2023-03-04T06:30:44.041Z,1.62
2023-03-04T06:35:47.425Z,1.69
2023-03-04T06:40:50.263Z,1.75
2023-03-04T06:45:53.262Z,1.81
2023-03-04T06:50:56.442Z,1.85
2023-03-04T06:55:59.381Z,1.89
2023-03-04T07:01:19.082Z,1.96
2023-03-04T07:06:27.447Z,2.04
2023-03-04T07:11:30.309Z,2.15
2023-03-04T07:16:33.476Z,2.25
2023-03-04T07:21:36.419Z,2.38
2023-03-04T07:26:39.427Z,2.46
2023-03-04T07:31:42.476Z,2.51
2023-03-04T07:36:45.541Z,2.57
2023-03-04T07:41:48.448Z,2.65
2023-03-04T07:46:51.456Z,2.69
2023-03-04T07:51:54.356Z,2.75
2023-03-04T07:56:57.260Z,2.81
2023-03-04T08:02:00.164Z,2.83
2023-03-04T08:07:03.069Z,2.93
2023-03-04T08:12:06.584Z,2.99
2023-03-04T08:17:10.119Z,3.07
2023-03-04T08:22:14.334Z,3.15
2023-03-04T08:27:17.238Z,3.21
2023-03-04T08:32:20.182Z,3.29
2023-03-04T08:37:23.873Z,3.37
2023-03-04T08:42:27.114Z,3.44
2023-03-04T08:47:29.879Z,3.39
2023-03-04T08:52:32.781Z,3.34
2023-03-04T08:57:35.683Z,3.34
2023-03-04T09:02:38.591Z,3.35
2023-03-04T09:07:41.697Z,3.39
2023-03-04T09:12:45.011Z,3.44
2023-03-04T09:17:47.911Z,3.49
2023-03-04T09:22:50.814Z,3.62
2023-03-04T09:27:54.025Z,3.68
2023-03-04T09:32:57.602Z,3.69
2023-03-04T09:38:00.338Z,3.69
2023-03-04T09:43:05.564Z,3.56
2023-03-04T09:48:13.336Z,3.35
2023-03-04T09:53:26.771Z,3.27
2023-03-04T09:58:42.375Z,3.42
2023-03-04T10:04:14.987Z,3.58
2023-03-04T10:09:28.634Z,3.63
2023-03-04T10:14:45.049Z,3.61
2023-03-04T10:20:18.873Z,3.66
2023-03-04T10:25:30.959Z,3.62
2023-03-04T10:30:46.079Z,3.64
2023-03-04T10:35:56.013Z,3.64
2023-03-04T10:40:59.739Z,3.65
2023-03-04T10:46:03.766Z,3.70
2023-03-04T10:51:28.717Z,3.69
2023-03-04T10:56:33.080Z,3.69
2023-03-04T11:01:35.946Z,3.74
2023-03-04T11:06:41.746Z,3.74
2023-03-04T11:11:46.116Z,3.55
2023-03-04T11:17:28.576Z,3.45
2023-03-04T11:22:32.265Z,3.43
2023-03-04T11:27:35.020Z,3.41
2023-03-04T11:32:43.720Z,3.24
2023-03-04T11:37:59.764Z,3.00
2023-03-04T11:43:11.495Z,3.06
2023-03-04T11:48:40.203Z,3.24
2023-03-04T11:54:12.599Z,3.17
2023-03-04T11:59:46.730Z,2.90
2023-03-04T12:05:04.790Z,3.17
2023-03-04T12:10:23.053Z,3.23
2023-03-04T12:15:32.600Z,2.95
2023-03-04T12:21:03.475Z,2.64
2023-03-04T12:26:40.686Z,2.59
2023-03-04T12:31:46.656Z,2.63
2023-03-04T12:37:05.538Z,2.67
2023-03-04T12:42:27.382Z,2.58
2023-03-04T12:47:33.113Z,2.46
2023-03-04T12:52:59.200Z,2.35
2023-03-04T12:58:02.762Z,2.29
2023-03-04T13:03:22.536Z,2.17
2023-03-04T13:08:38.937Z,1.73
2023-03-04T13:13:42.871Z,1.70
2023-03-04T13:18:45.867Z,2.02
2023-03-04T13:23:49.426Z,2.53
2023-03-04T13:28:55.096Z,2.68
2023-03-04T13:33:59.719Z,2.12
2023-03-04T13:39:23.295Z,1.68
2023-03-04T13:44:34.793Z,1.50
2023-03-04T13:49:38.104Z,1.24
2023-03-04T13:54:41.005Z,1.07
2023-03-04T13:59:49.443Z,1.47
2023-03-04T14:04:55.312Z,1.62
2023-03-04T14:10:14.011Z,1.48
2023-03-04T14:15:24.267Z,1.38
2023-03-04T14:20:30.341Z,1.20
2023-03-04T14:25:36.912Z,0.88
2023-03-04T14:30:43.677Z,0.64
2023-03-04T14:35:54.964Z,0.52
2023-03-04T14:41:02.464Z,0.39
2023-03-04T14:46:11.143Z,0.23
2023-03-04T14:51:38.616Z,0.24
2023-03-04T14:56:44.207Z,0.11
2023-03-04T15:01:47.485Z,0.02
2023-03-04T15:06:51.986Z,0.19
2023-03-04T15:12:08.653Z,0.57
2023-03-04T15:17:29.633Z,1.18
2023-03-04T15:22:37.491Z,0.97
2023-03-04T15:27:40.271Z,0.37
2023-03-04T15:32:43.052Z,-0.10
2023-03-04T15:37:49.571Z,-0.46
2023-03-04T15:42:52.644Z,-0.76
2023-03-04T15:47:55.548Z,-0.93
2023-03-04T15:53:02.466Z,-0.97
2023-03-04T15:58:06.581Z,-1.09
2023-03-04T16:03:15.626Z,-1.35
2023-03-04T16:08:25.187Z,-1.54
2023-03-04T16:13:28.192Z,-1.79
2023-03-04T16:18:31.313Z,-2.03
2023-03-04T16:23:42.904Z,-2.25
2023-03-04T16:28:46.424Z,-2.40
2023-03-04T16:33:49.336Z,-2.53
2023-03-04T16:38:55.504Z,-2.64
2023-03-04T16:44:00.173Z,-2.73
2023-03-04T16:49:04.691Z,-2.79
2023-03-04T16:54:11.813Z,-2.82
2023-03-04T16:59:16.761Z,-2.85
2023-03-04T17:04:20.471Z,-2.92
2023-03-04T17:09:23.474Z,-2.97
2023-03-04T17:14:26.301Z,-2.99
2023-03-04T17:19:29.180Z,-3.02
2023-03-04T17:24:32.089Z,-3.07
2023-03-04T17:29:34.889Z,-3.12
2023-03-04T17:34:37.788Z,-3.14
2023-03-04T17:39:41.071Z,-3.14
2023-03-04T17:44:45.545Z,-3.15
2023-03-04T17:49:48.901Z,-3.15
2023-03-04T17:54:51.858Z,-3.18
2023-03-04T17:59:56.295Z,-3.17
2023-03-04T18:04:59.201Z,-3.15
2023-03-04T18:10:02.109Z,-3.13
2023-03-04T18:15:05.674Z,-3.07
2023-03-04T18:20:09.497Z,-2.97
2023-03-04T18:25:12.945Z,-2.82
2023-03-04T18:30:27.243Z,-2.69
2023-03-04T18:35:30.164Z,-2.59
2023-03-04T18:40:33.160Z,-2.56
2023-03-04T18:45:44.080Z,-2.53
2023-03-04T18:50:51.482Z,-2.47
2023-03-04T18:56:03.878Z,-2.42
2023-03-04T19:01:09.976Z,-2.36
2023-03-04T19:06:12.958Z,-2.32
2023-03-04T19:11:15.861Z,-2.29
2023-03-04T19:16:18.695Z,-2.28
2023-03-04T19:21:21.571Z,-2.27
2023-03-04T19:26:24.676Z,-2.24
2023-03-04T19:31:27.691Z,-2.20
2023-03-04T19:36:31.249Z,-2.16
2023-03-04T19:41:34.101Z,-2.15
2023-03-04T19:46:36.980Z,-2.16
2023-03-04T19:51:40.056Z,-2.17
2023-03-04T19:56:43.325Z,-2.16
2023-03-04T20:01:47.509Z,-2.13
2023-03-04T20:06:51.188Z,-2.14
2023-03-04T20:11:58.308Z,-2.15
2023-03-04T20:17:03.724Z,-2.17
2023-03-04T20:22:07.154Z,-2.21
2023-03-04T20:27:14.946Z,-2.22
2023-03-04T20:32:17.828Z,-2.17
2023-03-04T20:37:21.290Z,-2.14
2023-03-04T20:42:24.553Z,-2.13
2023-03-04T20:47:27.311Z,-2.14
2023-03-04T20:52:30.204Z,-2.16
2023-03-04T20:57:33.000Z,-2.15
2023-03-04T21:02:36.113Z,-2.16
2023-03-04T21:07:38.916Z,-2.17
2023-03-04T21:12:41.825Z,-2.18
2023-03-04T21:17:44.831Z,-2.21
2023-03-04T21:22:47.948Z,-2.26
2023-03-04T21:27:50.840Z,-2.29
2023-03-04T21:32:54.446Z,-2.35
2023-03-04T21:37:57.368Z,-2.39
2023-03-04T21:43:00.295Z,-2.42
2023-03-04T21:48:03.502Z,-2.45
2023-03-04T21:53:06.302Z,-2.50
2023-03-04T21:58:09.212Z,-2.55
2023-03-04T22:03:12.115Z,-2.62
2023-03-04T22:08:17.023Z,-2.64
2023-03-04T22:13:19.872Z,-2.68
2023-03-04T22:18:22.777Z,-2.74
2023-03-04T22:23:25.787Z,-2.84
2023-03-04T22:28:30.022Z,-2.96
2023-03-04T22:33:37.346Z,-3.10
2023-03-04T22:38:41.291Z,-3.24
2023-03-04T22:43:45.169Z,-3.37
2023-03-04T22:48:52.436Z,-3.46
2023-03-04T22:53:55.820Z,-3.52
2023-03-04T22:58:59.083Z,-3.60
2023-03-04T23:04:01.932Z,-3.68
2023-03-04T23:09:05.433Z,-3.75
2023-03-04T23:14:09.258Z,-3.84
2023-03-04T23:19:14.924Z,-3.95
2023-03-04T23:24:19.666Z,-4.09
2023-03-04T23:29:22.573Z,-4.23
2023-03-04T23:34:25.385Z,-4.37
2023-03-04T23:39:28.278Z,-4.48
2023-03-04T23:44:31.074Z,-4.58
2023-03-04T23:49:33.985Z,-4.68
2023-03-04T23:54:36.890Z,-4.76
2023-03-04T23:59:39.989Z,-4.83
